sensor_id;sensor_type;location;lat;lon;timestamp;pressure;altitude;pressure_sealevel;temperature;humidity
59487;BME280;45298;54.918;73.504;2023-02-12T00:01:45;101680.75;;;-26.42;70.62
59487;BME280;45298;54.918;73.504;2023-02-12T00:04:14;101560.03;;;-27.18;70.27
59487;BME280;45298;54.918;73.504;2023-02-12T00:06:44;101666.56;;;-26.65;70.60
59487;BME280;45298;54.918;73.504;2023-02-12T00:09:12;101703.78;;;-26.44;70.34
59487;BME280;45298;54.918;73.504;2023-02-12T00:11:41;101671.03;;;-26.62;70.55
59487;BME280;45298;54.918;73.504;2023-02-12T00:14:10;101634.28;;;-26.94;70.54
59487;BME280;45298;54.918;73.504;2023-02-12T00:16:39;101626.94;;;-26.92;70.49
59487;BME280;45298;54.918;73.504;2023-02-12T00:19:08;101655.81;;;-26.80;70.77
59487;BME280;45298;54.918;73.504;2023-02-12T00:21:37;101660.44;;;-26.83;70.36
59487;BME280;45298;54.918;73.504;2023-02-12T00:24:06;101679.50;;;-26.83;70.44
59487;BME280;45298;54.918;73.504;2023-02-12T00:26:35;101666.53;;;-26.95;70.17
59487;BME280;45298;54.918;73.504;2023-02-12T00:29:04;101687.41;;;-26.87;70.44
59487;BME280;45298;54.918;73.504;2023-02-12T00:31:33;101637.72;;;-27.15;70.76
59487;BME280;45298;54.918;73.504;2023-02-12T00:34:01;101672.78;;;-26.99;71.15
59487;BME280;45298;54.918;73.504;2023-02-12T00:36:31;101695.78;;;-26.87;71.11
59487;BME280;45298;54.918;73.504;2023-02-12T00:39:00;101676.91;;;-26.99;70.92
59487;BME280;45298;54.918;73.504;2023-02-12T00:41:29;101698.81;;;-26.89;70.90
59487;BME280;45298;54.918;73.504;2023-02-12T00:43:59;101694.34;;;-26.92;70.88
59487;BME280;45298;54.918;73.504;2023-02-12T00:46:28;101665.84;;;-27.01;71.33
59487;BME280;45298;54.918;73.504;2023-02-12T00:48:57;101684.19;;;-26.86;71.19
59487;BME280;45298;54.918;73.504;2023-02-12T00:51:25;101700.31;;;-26.75;71.15
59487;BME280;45298;54.918;73.504;2023-02-12T00:53:54;101679.19;;;-26.86;70.65
59487;BME280;45298;54.918;73.504;2023-02-12T00:56:23;101709.44;;;-26.76;70.50
59487;BME280;45298;54.918;73.504;2023-02-12T00:58:52;101545.59;;;-27.73;70.40
59487;BME280;45298;54.918;73.504;2023-02-12T01:01:21;101711.25;;;-26.82;70.76
59487;BME280;45298;54.918;73.504;2023-02-12T01:03:50;101681.50;;;-26.95;70.75
59487;BME280;45298;54.918;73.504;2023-02-12T01:06:18;101713.25;;;-26.87;70.33
59487;BME280;45298;54.918;73.504;2023-02-12T01:08:51;101681.03;;;-27.14;70.35
59487;BME280;45298;54.918;73.504;2023-02-12T01:11:20;101673.91;;;-27.18;70.65
59487;BME280;45298;54.918;73.504;2023-02-12T01:13:49;101729.50;;;-26.90;70.73
59487;BME280;45298;54.918;73.504;2023-02-12T01:16:20;101689.41;;;-27.06;70.82
59487;BME280;45298;54.918;73.504;2023-02-12T01:18:51;101707.38;;;-27.02;70.91
59487;BME280;45298;54.918;73.504;2023-02-12T01:21:25;101687.47;;;-27.09;71.07
59487;BME280;45298;54.918;73.504;2023-02-12T01:23:56;101726.09;;;-26.91;70.62
59487;BME280;45298;54.918;73.504;2023-02-12T01:26:26;101703.97;;;-26.88;71.08
59487;BME280;45298;54.918;73.504;2023-02-12T01:29:01;101687.22;;;-26.89;70.70
59487;BME280;45298;54.918;73.504;2023-02-12T01:31:38;101736.19;;;-26.68;70.87
59487;BME280;45298;54.918;73.504;2023-02-12T01:34:08;101688.47;;;-26.92;71.04
59487;BME280;45298;54.918;73.504;2023-02-12T01:36:38;101694.28;;;-26.77;70.97
59487;BME280;45298;54.918;73.504;2023-02-12T01:39:09;101762.34;;;-26.50;70.45
59487;BME280;45298;54.918;73.504;2023-02-12T01:41:42;101707.44;;;-26.64;70.49
59487;BME280;45298;54.918;73.504;2023-02-12T01:44:18;101756.41;;;-26.36;70.86
59487;BME280;45298;54.918;73.504;2023-02-12T01:46:54;101737.34;;;-26.42;70.37
59487;BME280;45298;54.918;73.504;2023-02-12T01:49:32;101734.16;;;-26.49;70.88
59487;BME280;45298;54.918;73.504;2023-02-12T01:52:13;101732.72;;;-26.46;70.38
59487;BME280;45298;54.918;73.504;2023-02-12T01:54:43;101611.66;;;-27.10;69.80
59487;BME280;45298;54.918;73.504;2023-02-12T01:57:12;101734.84;;;-26.42;70.00
59487;BME280;45298;54.918;73.504;2023-02-12T01:59:43;101727.34;;;-26.42;70.37
59487;BME280;45298;54.918;73.504;2023-02-12T02:02:13;101681.03;;;-26.62;70.03
59487;BME280;45298;54.918;73.504;2023-02-12T02:04:48;101728.72;;;-26.37;69.76
59487;BME280;45298;54.918;73.504;2023-02-12T02:07:18;101714.00;;;-26.50;70.21
59487;BME280;45298;54.918;73.504;2023-02-12T02:09:49;101723.41;;;-26.40;70.49
59487;BME280;45298;54.918;73.504;2023-02-12T02:12:19;101750.91;;;-26.40;70.10
59487;BME280;45298;54.918;73.504;2023-02-12T02:15:06;101751.41;;;-26.36;70.29
59487;BME280;45298;54.918;73.504;2023-02-12T02:23:44;101770.19;;;-26.54;70.33
59487;BME280;45298;54.918;73.504;2023-02-12T02:32:07;101745.97;;;-26.69;70.22
59487;BME280;45298;54.918;73.504;2023-02-12T02:35:27;101782.53;;;-26.55;70.46
59487;BME280;45298;54.918;73.504;2023-02-12T02:37:38;101743.53;;;-26.76;70.88
59487;BME280;45298;54.918;73.504;2023-02-12T02:43:01;101723.06;;;-26.88;70.92
59487;BME280;45298;54.918;73.504;2023-02-12T02:48:43;101757.03;;;-26.67;71.11
59487;BME280;45298;54.918;73.504;2023-02-12T02:51:17;101740.63;;;-26.72;71.11
59487;BME280;45298;54.918;73.504;2023-02-12T02:54:02;101742.63;;;-26.70;70.84
59487;BME280;45298;54.918;73.504;2023-02-12T02:56:36;101735.84;;;-26.71;70.79
59487;BME280;45298;54.918;73.504;2023-02-12T02:59:10;101689.34;;;-26.92;71.00
59487;BME280;45298;54.918;73.504;2023-02-12T03:02:08;101791.91;;;-26.24;71.35
59487;BME280;45298;54.918;73.504;2023-02-12T03:04:44;101801.78;;;-26.09;71.32
59487;BME280;45298;54.918;73.504;2023-02-12T03:07:28;101785.00;;;-26.10;71.06
59487;BME280;45298;54.918;73.504;2023-02-12T03:10:29;101804.63;;;-25.99;71.04
59487;BME280;45298;54.918;73.504;2023-02-12T03:15:38;101737.78;;;-26.23;70.43
59487;BME280;45298;54.918;73.504;2023-02-12T03:18:11;101785.50;;;-25.98;70.42
59487;BME280;45298;54.918;73.504;2023-02-12T03:20:47;101648.94;;;-26.66;70.44
59487;BME280;45298;54.918;73.504;2023-02-12T03:23:24;101751.03;;;-26.01;70.64
59487;BME280;45298;54.918;73.504;2023-02-12T03:26:00;101666.66;;;-26.41;71.13
59487;BME280;45298;54.918;73.504;2023-02-12T03:28:34;101800.41;;;-25.53;70.62
59487;BME280;45298;54.918;73.504;2023-02-12T03:31:26;101735.34;;;-25.77;70.56
59487;BME280;45298;54.918;73.504;2023-02-12T03:34:10;101805.09;;;-25.33;70.49
59487;BME280;45298;54.918;73.504;2023-02-12T03:37:00;101807.94;;;-25.30;70.77
59487;BME280;45298;54.918;73.504;2023-02-12T03:51:02;101812.09;;;-24.91;70.53
59487;BME280;45298;54.918;73.504;2023-02-12T03:53:31;101790.69;;;-24.81;70.74
59487;BME280;45298;54.918;73.504;2023-02-12T03:56:10;101786.06;;;-24.69;70.45
59487;BME280;45298;54.918;73.504;2023-02-12T03:58:41;101767.63;;;-24.69;70.34
59487;BME280;45298;54.918;73.504;2023-02-12T04:01:11;101794.75;;;-24.42;70.31
59487;BME280;45298;54.918;73.504;2023-02-12T04:03:41;101762.56;;;-24.46;70.13
59487;BME280;45298;54.918;73.504;2023-02-12T04:06:21;101741.59;;;-24.46;70.19
59487;BME280;45298;54.918;73.504;2023-02-12T04:08:51;101752.50;;;-24.30;70.01
59487;BME280;45298;54.918;73.504;2023-02-12T04:17:19;101793.78;;;-23.78;70.09
59487;BME280;45298;54.918;73.504;2023-02-12T04:31:05;101770.94;;;-23.48;69.09
59487;BME280;45298;54.918;73.504;2023-02-12T04:33:44;101728.53;;;-23.78;69.24
59487;BME280;45298;54.918;73.504;2023-02-12T04:36:20;101730.31;;;-23.77;69.08
59487;BME280;45298;54.918;73.504;2023-02-12T04:38:59;101760.94;;;-23.64;69.29
59487;BME280;45298;54.918;73.504;2023-02-12T04:41:30;101768.31;;;-23.65;69.33
59487;BME280;45298;54.918;73.504;2023-02-12T04:44:21;101792.97;;;-23.61;69.68
59487;BME280;45298;54.918;73.504;2023-02-12T04:46:51;101804.91;;;-23.43;69.69
59487;BME280;45298;54.918;73.504;2023-02-12T04:49:21;101773.59;;;-23.46;69.96
59487;BME280;45298;54.918;73.504;2023-02-12T04:51:50;101771.06;;;-23.21;69.55
59487;BME280;45298;54.918;73.504;2023-02-12T04:54:20;101782.00;;;-23.03;69.52
59487;BME280;45298;54.918;73.504;2023-02-12T04:56:50;101724.19;;;-23.21;69.70
59487;BME280;45298;54.918;73.504;2023-02-12T04:59:19;101641.41;;;-23.46;69.74
59487;BME280;45298;54.918;73.504;2023-02-12T05:01:48;101769.44;;;-22.61;70.07
59487;BME280;45298;54.918;73.504;2023-02-12T05:04:18;101731.28;;;-22.57;69.99
59487;BME280;45298;54.918;73.504;2023-02-12T05:06:46;101736.47;;;-22.38;70.27
59487;BME280;45298;54.918;73.504;2023-02-12T05:09:17;101734.69;;;-22.21;70.26
59487;BME280;45298;54.918;73.504;2023-02-12T05:11:47;101760.69;;;-21.85;69.74
59487;BME280;45298;54.918;73.504;2023-02-12T05:14:16;101721.19;;;-22.04;70.14
59487;BME280;45298;54.918;73.504;2023-02-12T05:16:44;101740.72;;;-21.75;69.78
59487;BME280;45298;54.918;73.504;2023-02-12T05:19:13;101714.91;;;-21.64;70.32
59487;BME280;45298;54.918;73.504;2023-02-12T05:21:42;101721.94;;;-21.51;70.73
59487;BME280;45298;54.918;73.504;2023-02-12T05:24:11;101713.34;;;-21.53;69.73
59487;BME280;45298;54.918;73.504;2023-02-12T05:26:39;101715.25;;;-21.41;70.10
59487;BME280;45298;54.918;73.504;2023-02-12T05:29:10;101756.50;;;-21.13;70.43
59487;BME280;45298;54.918;73.504;2023-02-12T05:31:39;101745.09;;;-21.18;69.89
59487;BME280;45298;54.918;73.504;2023-02-12T05:34:10;101740.53;;;-21.22;69.61
59487;BME280;45298;54.918;73.504;2023-02-12T05:36:39;101740.69;;;-21.21;69.88
59487;BME280;45298;54.918;73.504;2023-02-12T05:39:09;101745.19;;;-21.08;69.33
59487;BME280;45298;54.918;73.504;2023-02-12T05:41:38;101757.38;;;-20.76;69.61
59487;BME280;45298;54.918;73.504;2023-02-12T05:44:07;101738.66;;;-20.50;70.15
59487;BME280;45298;54.918;73.504;2023-02-12T05:46:36;101743.94;;;-20.09;69.91
59487;BME280;45298;54.918;73.504;2023-02-12T05:49:05;101730.94;;;-19.84;69.42
59487;BME280;45298;54.918;73.504;2023-02-12T05:51:34;101707.72;;;-19.80;69.62
59487;BME280;45298;54.918;73.504;2023-02-12T05:54:04;101737.06;;;-19.42;69.11
59487;BME280;45298;54.918;73.504;2023-02-12T05:56:36;101721.34;;;-19.48;68.78
59487;BME280;45298;54.918;73.504;2023-02-12T05:59:07;101747.22;;;-19.51;68.95
59487;BME280;45298;54.918;73.504;2023-02-12T06:01:38;101751.78;;;-19.57;69.67
59487;BME280;45298;54.918;73.504;2023-02-12T06:04:12;101726.25;;;-19.60;69.22
59487;BME280;45298;54.918;73.504;2023-02-12T06:06:41;101757.41;;;-19.30;69.71
59487;BME280;45298;54.918;73.504;2023-02-12T06:09:11;101745.34;;;-19.13;69.96
59487;BME280;45298;54.918;73.504;2023-02-12T06:11:41;101782.34;;;-18.74;69.77
59487;BME280;45298;54.918;73.504;2023-02-12T06:14:13;101752.88;;;-18.63;70.19
59487;BME280;45298;54.918;73.504;2023-02-12T06:16:47;101757.53;;;-18.37;70.26
59487;BME280;45298;54.918;73.504;2023-02-12T06:19:16;101757.78;;;-18.24;69.61
59487;BME280;45298;54.918;73.504;2023-02-12T06:21:46;101755.31;;;-18.01;69.77
59487;BME280;45298;54.918;73.504;2023-02-12T06:24:16;101739.19;;;-17.91;69.85
59487;BME280;45298;54.918;73.504;2023-02-12T06:26:47;101727.25;;;-17.82;69.46
59487;BME280;45298;54.918;73.504;2023-02-12T06:29:20;101737.19;;;-17.53;69.62
59487;BME280;45298;54.918;73.504;2023-02-12T06:31:49;101764.53;;;-17.16;68.90
59487;BME280;45298;54.918;73.504;2023-02-12T06:34:18;101778.78;;;-16.84;69.12
59487;BME280;45298;54.918;73.504;2023-02-12T06:36:49;101785.75;;;-16.59;68.95
59487;BME280;45298;54.918;73.504;2023-02-12T06:39:18;101756.59;;;-16.52;69.84
59487;BME280;45298;54.918;73.504;2023-02-12T06:41:47;101683.66;;;-16.77;69.17
59487;BME280;45298;54.918;73.504;2023-02-12T06:44:16;101787.09;;;-15.94;69.02
59487;BME280;45298;54.918;73.504;2023-02-12T06:46:45;101779.88;;;-15.76;68.18
59487;BME280;45298;54.918;73.504;2023-02-12T06:49:14;101793.06;;;-15.46;68.36
59487;BME280;45298;54.918;73.504;2023-02-12T06:51:46;101725.94;;;-15.72;68.59
59487;BME280;45298;54.918;73.504;2023-02-12T06:54:16;101792.91;;;-15.24;68.92
59487;BME280;45298;54.918;73.504;2023-02-12T06:56:45;101770.75;;;-15.13;67.59
59487;BME280;45298;54.918;73.504;2023-02-12T06:59:15;101759.00;;;-14.99;67.38
59487;BME280;45298;54.918;73.504;2023-02-12T07:01:47;101746.78;;;-14.92;67.63
59487;BME280;45298;54.918;73.504;2023-02-12T07:04:15;101748.50;;;-14.79;67.20
59487;BME280;45298;54.918;73.504;2023-02-12T07:06:45;101740.22;;;-14.63;67.22
59487;BME280;45298;54.918;73.504;2023-02-12T07:09:13;101767.66;;;-14.33;66.94
59487;BME280;45298;54.918;73.504;2023-02-12T07:11:45;101717.91;;;-14.53;67.33
59487;BME280;45298;54.918;73.504;2023-02-12T07:14:15;101744.03;;;-14.31;67.33
59487;BME280;45298;54.918;73.504;2023-02-12T07:16:44;101745.84;;;-14.03;66.93
59487;BME280;45298;54.918;73.504;2023-02-12T07:19:13;101719.84;;;-13.84;66.16
59487;BME280;45298;54.918;73.504;2023-02-12T07:21:44;101718.56;;;-13.50;66.38
59487;BME280;45298;54.918;73.504;2023-02-12T07:24:15;101751.66;;;-13.10;65.65
59487;BME280;45298;54.918;73.504;2023-02-12T07:26:45;101723.25;;;-13.43;64.95
59487;BME280;45298;54.918;73.504;2023-02-12T07:29:14;101748.94;;;-13.40;65.67
59487;BME280;45298;54.918;73.504;2023-02-12T07:31:44;101718.09;;;-13.58;65.46
59487;BME280;45298;54.918;73.504;2023-02-12T07:34:13;101695.22;;;-13.70;65.07
59487;BME280;45298;54.918;73.504;2023-02-12T07:36:42;101742.03;;;-13.14;65.15
59487;BME280;45298;54.918;73.504;2023-02-12T07:39:11;101755.97;;;-12.80;64.31
59487;BME280;45298;54.918;73.504;2023-02-12T07:41:40;101710.66;;;-12.83;64.94
59487;BME280;45298;54.918;73.504;2023-02-12T07:44:11;101723.16;;;-12.59;64.36
59487;BME280;45298;54.918;73.504;2023-02-12T07:46:45;101699.53;;;-12.98;63.25
59487;BME280;45298;54.918;73.504;2023-02-12T07:49:17;101737.91;;;-13.12;63.96
59487;BME280;45298;54.918;73.504;2023-02-12T07:51:49;101709.00;;;-13.39;64.39
59487;BME280;45298;54.918;73.504;2023-02-12T07:54:18;101691.16;;;-13.53;64.35
59487;BME280;45298;54.918;73.504;2023-02-12T07:56:47;101713.84;;;-13.44;64.05
59487;BME280;45298;54.918;73.504;2023-02-12T07:59:17;101700.09;;;-13.46;63.75
59487;BME280;45298;54.918;73.504;2023-02-12T08:01:48;101738.88;;;-13.23;63.72
59487;BME280;45298;54.918;73.504;2023-02-12T08:04:20;101742.91;;;-13.55;63.38
59487;BME280;45298;54.918;73.504;2023-02-12T08:06:52;101693.09;;;-14.04;63.46
59487;BME280;45298;54.918;73.504;2023-02-12T08:09:24;101710.75;;;-14.07;63.40
59487;BME280;45298;54.918;73.504;2023-02-12T08:11:53;101741.13;;;-13.97;63.83
59487;BME280;45298;54.918;73.504;2023-02-12T08:14:22;101730.72;;;-14.00;63.59
59487;BME280;45298;54.918;73.504;2023-02-12T08:16:51;101732.31;;;-13.88;63.84
59487;BME280;45298;54.918;73.504;2023-02-12T08:19:20;101719.84;;;-14.10;63.78
59487;BME280;45298;54.918;73.504;2023-02-12T08:21:55;101708.63;;;-14.26;63.56
59487;BME280;45298;54.918;73.504;2023-02-12T08:24:24;101701.06;;;-14.38;64.02
59487;BME280;45298;54.918;73.504;2023-02-12T08:26:54;101735.13;;;-14.24;63.42
59487;BME280;45298;54.918;73.504;2023-02-12T08:29:28;101731.19;;;-14.32;63.66
59487;BME280;45298;54.918;73.504;2023-02-12T08:32:02;101703.38;;;-14.54;63.88
59487;BME280;45298;54.918;73.504;2023-02-12T08:34:33;101740.50;;;-14.33;64.19
59487;BME280;45298;54.918;73.504;2023-02-12T08:37:04;101742.47;;;-14.29;63.96
59487;BME280;45298;54.918;73.504;2023-02-12T08:39:34;101718.97;;;-14.50;63.53
59487;BME280;45298;54.918;73.504;2023-02-12T08:42:02;101753.09;;;-14.22;63.75
59487;BME280;45298;54.918;73.504;2023-02-12T08:44:31;101742.56;;;-14.27;63.50
59487;BME280;45298;54.918;73.504;2023-02-12T08:47:00;101750.03;;;-14.17;63.30
59487;BME280;45298;54.918;73.504;2023-02-12T08:49:29;101628.41;;;-15.10;63.33
59487;BME280;45298;54.918;73.504;2023-02-12T08:51:59;101636.63;;;-15.14;63.11
59487;BME280;45298;54.918;73.504;2023-02-12T08:54:30;101757.28;;;-14.62;63.78
59487;BME280;45298;54.918;73.504;2023-02-12T08:57:01;101732.53;;;-14.76;63.77
59487;BME280;45298;54.918;73.504;2023-02-12T08:59:30;101763.53;;;-14.70;63.13
59487;BME280;45298;54.918;73.504;2023-02-12T09:01:59;101725.91;;;-14.99;63.18
59487;BME280;45298;54.918;73.504;2023-02-12T09:04:29;101723.59;;;-15.08;62.96
59487;BME280;45298;54.918;73.504;2023-02-12T09:06:58;101752.13;;;-15.00;62.90
59487;BME280;45298;54.918;73.504;2023-02-12T09:09:27;101710.16;;;-15.31;64.25
59487;BME280;45298;54.918;73.504;2023-02-12T09:11:56;101739.13;;;-15.17;63.59
59487;BME280;45298;54.918;73.504;2023-02-12T09:14:24;101711.72;;;-15.33;64.03
59487;BME280;45298;54.918;73.504;2023-02-12T09:16:53;101687.75;;;-15.48;63.24
59487;BME280;45298;54.918;73.504;2023-02-12T09:19:24;101699.34;;;-15.40;64.06
59487;BME280;45298;54.918;73.504;2023-02-12T09:21:54;101688.97;;;-15.43;63.70
59487;BME280;45298;54.918;73.504;2023-02-12T09:24:24;101638.47;;;-15.74;63.46
59487;BME280;45298;54.918;73.504;2023-02-12T09:26:55;101675.13;;;-15.47;63.01
59487;BME280;45298;54.918;73.504;2023-02-12T09:29:24;101703.53;;;-15.29;62.91
59487;BME280;45298;54.918;73.504;2023-02-12T09:31:53;101702.59;;;-15.17;64.01
59487;BME280;45298;54.918;73.504;2023-02-12T09:34:22;101702.81;;;-15.14;64.09
59487;BME280;45298;54.918;73.504;2023-02-12T09:36:51;101704.44;;;-15.03;63.49
59487;BME280;45298;54.918;73.504;2023-02-12T09:39:20;101731.94;;;-14.85;62.99
59487;BME280;45298;54.918;73.504;2023-02-12T09:50:42;101744.16;;;-14.68;64.02
59487;BME280;45298;54.918;73.504;2023-02-12T09:53:20;101590.34;;;-15.59;64.14
59487;BME280;45298;54.918;73.504;2023-02-12T09:55:50;101719.72;;;-14.78;64.18
59487;BME280;45298;54.918;73.504;2023-02-12T09:58:59;101753.16;;;-14.60;63.03
59487;BME280;45298;54.918;73.504;2023-02-12T10:01:30;101749.72;;;-14.60;63.96
59487;BME280;45298;54.918;73.504;2023-02-12T10:03:59;101750.41;;;-14.63;64.21
59487;BME280;45298;54.918;73.504;2023-02-12T10:06:32;101723.72;;;-14.81;63.63
59487;BME280;45298;54.918;73.504;2023-02-12T10:15:17;101756.69;;;-14.71;63.58
59487;BME280;45298;54.918;73.504;2023-02-12T10:20:47;101759.56;;;-14.78;64.30
59487;BME280;45298;54.918;73.504;2023-02-12T10:26:23;101748.34;;;-14.94;63.79
59487;BME280;45298;54.918;73.504;2023-02-12T10:28:56;101714.91;;;-15.24;64.03
59487;BME280;45298;54.918;73.504;2023-02-12T10:31:35;101729.16;;;-15.14;63.79
59487;BME280;45298;54.918;73.504;2023-02-12T10:34:23;101669.44;;;-15.68;63.67
59487;BME280;45298;54.918;73.504;2023-02-12T10:37:27;101777.50;;;-15.02;63.87
59487;BME280;45298;54.918;73.504;2023-02-12T10:40:28;101781.25;;;-15.09;63.61
59487;BME280;45298;54.918;73.504;2023-02-12T10:43:01;101769.78;;;-15.27;64.11
59487;BME280;45298;54.918;73.504;2023-02-12T10:45:34;101791.91;;;-15.26;64.92
59487;BME280;45298;54.918;73.504;2023-02-12T10:48:33;101800.78;;;-15.33;64.56
59487;BME280;45298;54.918;73.504;2023-02-12T10:53:38;101799.56;;;-15.38;64.99
59487;BME280;45298;54.918;73.504;2023-02-12T11:01:32;101780.53;;;-16.15;64.23
59487;BME280;45298;54.918;73.504;2023-02-12T11:07:06;101814.63;;;-16.35;65.27
59487;BME280;45298;54.918;73.504;2023-02-12T11:09:37;101818.97;;;-16.56;65.55
59487;BME280;45298;54.918;73.504;2023-02-12T11:12:34;101827.13;;;-16.60;65.74
59487;BME280;45298;54.918;73.504;2023-02-12T11:43:01;101803.19;;;-17.41;67.52
59487;BME280;45298;54.918;73.504;2023-02-12T11:45:47;101711.19;;;-18.15;67.09
59487;BME280;45298;54.918;73.504;2023-02-12T11:48:31;101741.78;;;-18.12;67.21
59487;BME280;45298;54.918;73.504;2023-02-12T11:51:03;101835.09;;;-17.75;67.38
59487;BME280;45298;54.918;73.504;2023-02-12T11:53:37;101870.22;;;-17.80;67.22
59487;BME280;45298;54.918;73.504;2023-02-12T11:56:10;101878.81;;;-17.88;67.57
59487;BME280;45298;54.918;73.504;2023-02-12T11:58:41;101870.34;;;-17.99;67.78
59487;BME280;45298;54.918;73.504;2023-02-12T12:01:34;101870.75;;;-18.15;67.78
59487;BME280;45298;54.918;73.504;2023-02-12T12:04:10;101861.63;;;-18.34;68.05
59487;BME280;45298;54.918;73.504;2023-02-12T12:06:45;101819.81;;;-18.60;68.15
59487;BME280;45298;54.918;73.504;2023-02-12T12:09:44;101819.53;;;-18.63;68.44
59487;BME280;45298;54.918;73.504;2023-02-12T12:12:20;101845.84;;;-18.71;68.03
59487;BME280;45298;54.918;73.504;2023-02-12T12:15:03;101865.56;;;-18.77;68.60
59487;BME280;45298;54.918;73.504;2023-02-12T12:21:44;101846.06;;;-19.28;68.98
59487;BME280;45298;54.918;73.504;2023-02-12T12:24:22;101882.53;;;-19.16;68.77
59487;BME280;45298;54.918;73.504;2023-02-12T12:26:59;101865.66;;;-19.26;68.84
59487;BME280;45298;54.918;73.504;2023-02-12T12:29:54;101886.44;;;-19.20;68.83
59487;BME280;45298;54.918;73.504;2023-02-12T12:32:30;101879.75;;;-19.38;68.72
59487;BME280;45298;54.918;73.504;2023-02-12T12:34:59;101848.25;;;-19.71;68.85
59487;BME280;45298;54.918;73.504;2023-02-12T12:40:19;101906.28;;;-19.63;69.29
59487;BME280;45298;54.918;73.504;2023-02-12T12:45:56;101867.16;;;-19.96;68.89
59487;BME280;45298;54.918;73.504;2023-02-12T12:48:42;101914.88;;;-19.80;68.35
59487;BME280;45298;54.918;73.504;2023-02-12T12:51:43;101863.59;;;-20.17;68.31
59487;BME280;45298;54.918;73.504;2023-02-12T13:08:59;101879.94;;;-20.50;68.59
59487;BME280;45298;54.918;73.504;2023-02-12T13:14:43;101926.31;;;-20.30;68.68
59487;BME280;45298;54.918;73.504;2023-02-12T13:17:38;101884.72;;;-20.53;68.67
59487;BME280;45298;54.918;73.504;2023-02-12T13:25:53;101924.03;;;-20.55;69.17
59487;BME280;45298;54.918;73.504;2023-02-12T13:28:36;101930.88;;;-20.54;69.09
59487;BME280;45298;54.918;73.504;2023-02-12T13:31:09;101920.34;;;-20.68;69.06
59487;BME280;45298;54.918;73.504;2023-02-12T13:34:01;101897.59;;;-20.87;68.76
59487;BME280;45298;54.918;73.504;2023-02-12T13:36:34;101893.72;;;-20.83;69.24
59487;BME280;45298;54.918;73.504;2023-02-12T13:39:15;101925.88;;;-20.72;69.15
59487;BME280;45298;54.918;73.504;2023-02-12T13:41:56;101900.25;;;-20.85;69.65
59487;BME280;45298;54.918;73.504;2023-02-12T13:44:57;101928.97;;;-20.74;70.12
59487;BME280;45298;54.918;73.504;2023-02-12T13:53:17;101936.81;;;-20.99;69.71
59487;BME280;45298;54.918;73.504;2023-02-12T13:58:50;101926.22;;;-20.86;69.64
59487;BME280;45298;54.918;73.504;2023-02-12T14:01:44;101926.97;;;-20.87;70.45
59487;BME280;45298;54.918;73.504;2023-02-12T14:07:04;101913.34;;;-21.07;69.70
59487;BME280;45298;54.918;73.504;2023-02-12T14:09:45;101871.00;;;-21.29;70.17
59487;BME280;45298;54.918;73.504;2023-02-12T14:20:05;101847.91;;;-21.51;69.88
59487;BME280;45298;54.918;73.504;2023-02-12T14:27:44;101892.50;;;-21.32;69.98
59487;BME280;45298;54.918;73.504;2023-02-12T14:30:34;101890.56;;;-21.35;70.44
59487;BME280;45298;54.918;73.504;2023-02-12T14:35:38;101908.34;;;-21.51;69.67
59487;BME280;45298;54.918;73.504;2023-02-12T14:40:44;101757.16;;;-22.40;70.05
59487;BME280;45298;54.918;73.504;2023-02-12T14:43:34;101861.41;;;-21.85;70.30
59487;BME280;45298;54.918;73.504;2023-02-12T14:48:54;101891.19;;;-21.81;70.19
59487;BME280;45298;54.918;73.504;2023-02-12T14:51:50;101895.03;;;-21.85;69.77
59487;BME280;45298;54.918;73.504;2023-02-12T14:54:33;101891.03;;;-21.92;69.92
59487;BME280;45298;54.918;73.504;2023-02-12T14:57:07;101848.22;;;-22.18;69.48
59487;BME280;45298;54.918;73.504;2023-02-12T14:59:40;101863.63;;;-22.06;69.59
59487;BME280;45298;54.918;73.504;2023-02-12T15:02:24;101852.34;;;-22.18;69.98
59487;BME280;45298;54.918;73.504;2023-02-12T15:05:19;101846.13;;;-22.31;69.72
59487;BME280;45298;54.918;73.504;2023-02-12T15:10:36;101834.72;;;-22.45;70.07
59487;BME280;45298;54.918;73.504;2023-02-12T15:13:28;101892.31;;;-22.22;69.99
59487;BME280;45298;54.918;73.504;2023-02-12T15:16:08;101876.88;;;-22.42;69.82
59487;BME280;45298;54.918;73.504;2023-02-12T15:18:48;101894.03;;;-22.38;70.21
59487;BME280;45298;54.918;73.504;2023-02-12T15:21:26;101883.66;;;-22.41;69.50
59487;BME280;45298;54.918;73.504;2023-02-12T15:24:02;101875.06;;;-22.52;69.60
59487;BME280;45298;54.918;73.504;2023-02-12T15:26:39;101841.75;;;-22.67;69.36
59487;BME280;45298;54.918;73.504;2023-02-12T15:29:36;101848.53;;;-22.75;69.33
59487;BME280;45298;54.918;73.504;2023-02-12T15:32:26;101885.69;;;-22.63;69.56
59487;BME280;45298;54.918;73.504;2023-02-12T15:34:56;101877.91;;;-22.83;69.50
59487;BME280;45298;54.918;73.504;2023-02-12T15:37:28;101843.41;;;-22.92;69.82
59487;BME280;45298;54.918;73.504;2023-02-12T15:40:00;101891.84;;;-22.77;69.55
59487;BME280;45298;54.918;73.504;2023-02-12T15:47:44;101833.03;;;-23.04;69.76
59487;BME280;45298;54.918;73.504;2023-02-12T15:50:15;101890.06;;;-22.78;70.17
59487;BME280;45298;54.918;73.504;2023-02-12T15:52:45;101857.34;;;-22.87;69.53
59487;BME280;45298;54.918;73.504;2023-02-12T15:55:20;101733.91;;;-23.66;70.03
59487;BME280;45298;54.918;73.504;2023-02-12T15:57:52;101840.13;;;-23.00;69.85
59487;BME280;45298;54.918;73.504;2023-02-12T16:00:40;101878.41;;;-22.78;69.84
59487;BME280;45298;54.918;73.504;2023-02-12T16:03:36;101870.38;;;-22.83;69.73
59487;BME280;45298;54.918;73.504;2023-02-12T16:06:09;101874.78;;;-22.89;69.53
59487;BME280;45298;54.918;73.504;2023-02-12T16:08:46;101825.16;;;-23.16;69.34